createdAt,value
2023-11-23T00:06:11.384Z,21.17
2023-11-23T00:16:13.324Z,21.17
2023-11-23T00:26:15.316Z,21.17
2023-11-23T00:36:17.348Z,21.16
2023-11-23T00:46:19.323Z,21.18
2023-11-23T00:56:21.062Z,21.18
2023-11-23T01:06:23.287Z,21.19
2023-11-23T01:16:26.308Z,21.18
2023-11-23T01:26:28.052Z,21.20
2023-11-23T01:36:29.756Z,21.20
2023-11-23T01:46:32.022Z,21.21
2023-11-23T01:56:33.879Z,21.24
2023-11-23T02:06:35.615Z,21.26
2023-11-23T02:16:38.980Z,21.25
2023-11-23T02:26:41.011Z,21.25
2023-11-23T02:36:42.747Z,21.28
2023-11-23T02:46:44.707Z,21.28
2023-11-23T02:56:46.455Z,21.31
2023-11-23T03:06:48.624Z,21.29
2023-11-23T03:16:51.768Z,21.31
2023-11-23T03:26:53.958Z,21.33
2023-11-23T03:36:56.635Z,21.18
2023-11-23T03:46:58.327Z,21.34
2023-11-23T03:57:00.125Z,21.34
2023-11-23T04:07:02.453Z,21.33
2023-11-23T04:17:04.199Z,21.35
2023-11-23T04:27:06.159Z,21.35
2023-11-23T04:37:07.968Z,21.35
2023-11-23T04:47:09.739Z,21.34
2023-11-23T04:57:11.536Z,21.31
2023-11-23T05:07:13.425Z,21.34
2023-11-23T05:17:15.122Z,21.27
2023-11-23T05:27:17.456Z,21.29
2023-11-23T05:37:19.229Z,21.30
2023-11-23T05:47:20.951Z,21.26
2023-11-23T05:57:24.922Z,21.27
2023-11-23T06:07:26.833Z,21.17
2023-11-23T06:17:28.697Z,21.24
2023-11-23T06:27:33.476Z,21.24
2023-11-23T06:37:37.277Z,21.21
2023-11-23T06:47:41.402Z,21.36
2023-11-23T06:57:47.959Z,21.47
2023-11-23T07:07:50.039Z,21.46
2023-11-23T07:17:51.971Z,21.41
2023-11-23T07:27:53.901Z,21.40
2023-11-23T07:37:55.726Z,21.27
2023-11-23T07:47:57.744Z,21.36
2023-11-23T07:57:59.654Z,21.34
2023-11-23T08:08:01.760Z,21.32
2023-11-23T08:18:07.967Z,21.40
2023-11-23T08:28:10.513Z,21.36
2023-11-23T08:38:15.862Z,21.42
2023-11-23T08:48:17.823Z,21.45
2023-11-23T08:58:19.789Z,21.48
2023-11-23T09:08:21.888Z,21.48
2023-11-23T09:18:24.277Z,21.46
2023-11-23T09:28:26.382Z,21.47
2023-11-23T09:38:28.478Z,21.47
2023-11-23T09:48:35.533Z,21.50
2023-11-23T09:58:37.302Z,21.50
2023-11-23T10:08:39.214Z,21.52
2023-11-23T10:18:44.916Z,21.54
2023-11-23T10:28:48.503Z,21.55
2023-11-23T10:38:51.177Z,21.57
2023-11-23T10:48:54.661Z,21.54
2023-11-23T10:59:01.752Z,21.60
2023-11-23T11:09:15.697Z,21.59
2023-11-23T11:19:18.876Z,21.61
2023-11-23T11:29:22.596Z,21.56
2023-11-23T11:39:28.638Z,21.59
2023-11-23T11:49:31.653Z,21.55
2023-11-23T11:59:37.416Z,21.59
2023-11-23T12:09:44.212Z,21.57
2023-11-23T12:19:53.165Z,21.61
2023-11-23T12:29:55.304Z,21.60
2023-11-23T12:39:57.225Z,21.55
2023-11-23T12:49:59.350Z,21.52
2023-11-23T13:00:02.496Z,21.50
2023-11-23T13:10:07.129Z,21.50
2023-11-23T13:20:10.763Z,21.47
2023-11-23T13:30:12.895Z,21.47
2023-11-23T13:40:14.952Z,21.43
2023-11-23T13:50:18.286Z,21.44
2023-11-23T14:00:23.766Z,21.42
2023-11-23T14:10:27.148Z,21.43
2023-11-23T14:20:29.124Z,21.41
2023-11-23T14:30:30.913Z,21.42
2023-11-23T14:40:33.394Z,21.34
2023-11-23T14:50:35.394Z,21.38
2023-11-23T15:00:40.176Z,21.38
2023-11-23T15:10:42.242Z,21.38
2023-11-23T15:20:47.353Z,21.35
2023-11-23T15:30:50.008Z,21.36
2023-11-23T15:40:51.860Z,21.34
2023-11-23T15:50:53.593Z,21.31
2023-11-23T16:00:55.445Z,21.31
2023-11-23T16:10:57.297Z,21.31
2023-11-23T16:20:59.192Z,21.34
2023-11-23T16:31:01.248Z,21.37
2023-11-23T16:41:03.563Z,21.29
2023-11-23T16:51:06.244Z,21.30
2023-11-23T17:01:08.526Z,21.29
2023-11-23T17:11:10.736Z,21.29
2023-11-23T17:21:12.975Z,21.29
2023-11-23T17:31:15.909Z,21.28
2023-11-23T17:41:17.846Z,21.27
2023-11-23T17:51:20.039Z,21.30
2023-11-23T18:01:22.884Z,21.32
2023-11-23T18:11:24.782Z,21.41
2023-11-23T18:21:26.583Z,21.46
2023-11-23T18:31:28.482Z,21.47
2023-11-23T18:41:30.385Z,21.56
2023-11-23T18:51:32.593Z,21.53
2023-11-23T19:01:34.802Z,21.54
2023-11-23T19:11:38.553Z,21.51
2023-11-23T19:21:40.866Z,21.46
2023-11-23T19:31:50.640Z,21.41
2023-11-23T19:41:53.922Z,21.45
2023-11-23T19:52:00.780Z,21.39
2023-11-23T20:02:02.756Z,21.43
2023-11-23T20:12:05.484Z,21.45
2023-11-23T20:22:07.481Z,21.49
2023-11-23T20:32:09.321Z,21.52
2023-11-23T20:42:12.559Z,21.50
2023-11-23T20:52:15.267Z,21.43
2023-11-23T21:02:18.032Z,21.50
2023-11-23T21:12:27.198Z,21.50
2023-11-23T21:22:30.719Z,21.47
2023-11-23T21:32:33.480Z,21.46
2023-11-23T21:42:36.153Z,21.41
2023-11-23T21:52:40.657Z,21.34
2023-11-23T22:02:42.962Z,21.41
2023-11-23T22:12:45.138Z,21.41
2023-11-23T22:22:47.823Z,21.39
2023-11-23T22:32:55.415Z,21.36
2023-11-23T22:42:58.002Z,21.37
2023-11-23T22:52:59.981Z,21.35
2023-11-23T23:03:01.828Z,21.34
2023-11-23T23:13:07.068Z,21.30
2023-11-23T23:23:11.159Z,21.29
2023-11-23T23:33:13.076Z,21.28
2023-11-23T23:43:14.874Z,21.29
2023-11-23T23:53:17.418Z,21.27
